Página principal
METAR-TAF:

METAR-TAF

Aeroportos :

Aeroporto Internacional de Túnis-Cartago

Tunes, Tunísia

latitude: 36-50N, longitude: 010-14E, altura: 3 m

Observação actual do tempo

O boletim foi feito há 11 minutos, às 22:30 UTC
Vento 3 kt de nor-noroeste
Temperatura 16°C
Humidade 77%
Pressão 1009 hPa
Visibilidade: 8000 m
Nuvens dispersasa uma altura de 2600 ft

METAR: DTTA 152230Z 33003KT 8000 SCT026 16/12 Q1009

Hora: 23:41 (22:41 UTC)

Previsão

O boletim foi feito há 5 horas e 41 minutos, às 17:00 UTC
Previsão válida de 15 às 18 UTC a 16 às 18 UTC
Vento 8 kt de nor-noroeste
Visibilidade 10 km ou mais
Poucas nuvensa uma altura de 2300 ft
Probabilidade 40% :
Temporariamente
de 15 às 22 UTC a 16 às 18 UTC
Nuvens dispersasa uma altura de 2300 ft, Cumulus congestus.
Poucas nuvensa uma altura de 2600 ft, Cumulonimbus.
trovoada, (fraco) chuva

TAF: DTTA 151700Z 1518/1618 33008KT 9999 FEW023 PROB40 TEMPO 1522/1618 -TS RA SCT023TCU FEW026CB

Observações e previsões do tempo de mais de 4000 aeroportos (mensagens METAR e TAF).

As estações disponíveis são os pontos amarelos e vermelhos sobre o mapa.

Mova o rato sobre o mapa para ver o nome da estação.

Depois clique no ponto para visualizar as observações e previsões meteorológicas.

Para alterar o mapa : clique nos botões verdes com uma cruz preta para aumentar o zoom; no botão verde com uma pitada de zoom; ou nas setas verdes para mapas adjacentes.


METAR-TAF: